createdAt,value
2018-11-06T00:01:43.976Z,5.07
2018-11-06T00:04:25.050Z,5.10
2018-11-06T00:06:54.565Z,4.40
2018-11-06T00:09:23.757Z,5.70
2018-11-06T00:11:53.007Z,4.97
2018-11-06T00:14:22.721Z,5.73
2018-11-06T00:16:51.873Z,5.37
2018-11-06T00:19:29.217Z,4.20
2018-11-06T00:21:58.750Z,7.47
2018-11-06T00:24:29.919Z,4.47
2018-11-06T00:26:59.195Z,5.50
2018-11-06T00:29:35.746Z,6.73
2018-11-06T00:32:06.103Z,4.77
2018-11-06T00:34:35.209Z,4.93
2018-11-06T00:37:05.153Z,4.77
2018-11-06T00:39:41.754Z,5.33
2018-11-06T00:42:10.923Z,5.60
2018-11-06T00:44:41.615Z,5.27
2018-11-06T00:47:10.847Z,5.10
2018-11-06T00:49:46.254Z,4.90
2018-11-06T00:52:15.426Z,5.73
2018-11-06T00:54:48.424Z,4.53
2018-11-06T00:57:17.528Z,4.93
2018-11-06T00:59:54.428Z,7.37
2018-11-06T01:02:24.683Z,3.83
2018-11-06T01:04:53.857Z,4.13
2018-11-06T01:07:23.168Z,4.57
2018-11-06T01:09:59.688Z,4.10
2018-11-06T01:12:28.918Z,3.50
2018-11-06T01:14:59.874Z,3.77
2018-11-06T01:17:29.952Z,6.33
2018-11-06T01:20:03.548Z,4.40
2018-11-06T01:22:33.767Z,3.93
2018-11-06T01:25:08.415Z,5.50
2018-11-06T01:27:39.022Z,5.07
2018-11-06T01:30:19.073Z,3.73
2018-11-06T01:32:54.267Z,4.43
2018-11-06T01:35:23.680Z,3.70
2018-11-06T01:37:52.836Z,4.77
2018-11-06T01:40:21.968Z,3.67
2018-11-06T01:42:51.109Z,2.77
2018-11-06T01:45:21.659Z,3.33
2018-11-06T01:47:51.118Z,2.87
2018-11-06T01:50:21.979Z,5.83
2018-11-06T01:52:52.325Z,7.17
2018-11-06T01:55:26.100Z,3.97
2018-11-06T01:57:55.950Z,2.63
2018-11-06T02:00:28.729Z,2.47
2018-11-06T02:02:58.789Z,3.43
2018-11-06T02:05:31.461Z,3.33
2018-11-06T02:08:00.616Z,2.13
2018-11-06T02:10:34.104Z,2.87
2018-11-06T02:13:04.377Z,2.10
2018-11-06T02:15:37.398Z,2.20
2018-11-06T02:18:06.761Z,3.87
2018-11-06T02:20:40.375Z,1.47
2018-11-06T02:23:09.823Z,1.53
2018-11-06T02:25:46.501Z,1.77
2018-11-06T02:28:15.828Z,3.13
2018-11-06T02:30:46.029Z,3.47
2018-11-06T02:33:15.140Z,3.30
2018-11-06T02:35:51.546Z,4.07
2018-11-06T02:38:20.896Z,3.30
2018-11-06T02:40:53.064Z,3.33
2018-11-06T02:43:22.129Z,4.30
2018-11-06T02:45:55.891Z,3.60
2018-11-06T02:48:24.951Z,5.27
2018-11-06T02:51:01.339Z,4.27
2018-11-06T02:53:30.718Z,4.60
2018-11-06T02:56:02.141Z,6.77
2018-11-06T02:58:31.127Z,4.27
2018-11-06T03:01:07.793Z,4.93
2018-11-06T03:03:40.375Z,3.60
2018-11-06T03:06:10.631Z,3.60
2018-11-06T03:08:40.268Z,2.47
2018-11-06T03:11:11.401Z,3.17
2018-11-06T03:13:40.936Z,2.10
2018-11-06T03:16:18.122Z,2.13
2018-11-06T03:18:47.627Z,2.20
2018-11-06T03:21:17.134Z,2.13
2018-11-06T03:23:46.892Z,1.90
2018-11-06T03:26:23.792Z,2.20
2018-11-06T03:28:53.385Z,2.13
2018-11-06T03:31:23.776Z,2.77
2018-11-06T03:33:52.961Z,2.27
2018-11-06T03:36:29.276Z,2.43
2018-11-06T03:38:58.514Z,1.70
2018-11-06T03:41:30.999Z,1.83
2018-11-06T03:44:00.336Z,1.60
2018-11-06T03:46:32.926Z,1.77
2018-11-06T03:49:02.220Z,2.20
2018-11-06T03:51:36.293Z,1.87
2018-11-06T03:54:05.744Z,3.07
2018-11-06T03:56:41.962Z,2.03
2018-11-06T03:59:11.056Z,2.80
2018-11-06T04:01:43.747Z,3.73
2018-11-06T04:04:12.855Z,3.27
2018-11-06T04:06:45.513Z,5.17
2018-11-06T04:09:14.605Z,3.60
2018-11-06T04:11:50.768Z,4.43
2018-11-06T04:14:20.133Z,4.73
2018-11-06T04:16:51.005Z,5.20
2018-11-06T04:19:20.307Z,4.47
2018-11-06T04:21:55.809Z,3.70
2018-11-06T04:24:25.184Z,3.20
2018-11-06T04:26:57.757Z,5.53
2018-11-06T04:29:27.109Z,3.80
2018-11-06T04:32:03.410Z,4.33
2018-11-06T04:34:32.500Z,4.20
2018-11-06T04:37:04.450Z,4.87
2018-11-06T04:39:33.574Z,6.30
2018-11-06T04:42:07.459Z,4.13
2018-11-06T04:44:36.711Z,4.77
2018-11-06T04:47:13.280Z,6.57
2018-11-06T04:49:42.929Z,5.20
2018-11-06T04:52:13.608Z,3.93
2018-11-06T04:54:42.674Z,4.43
2018-11-06T04:57:17.210Z,3.23
2018-11-06T04:59:46.236Z,4.20
2018-11-06T05:02:19.625Z,3.07
2018-11-06T05:04:49.047Z,2.93
2018-11-06T05:07:25.361Z,3.23
2018-11-06T05:09:54.456Z,3.90
2018-11-06T05:12:27.152Z,4.10
2018-11-06T05:14:56.260Z,3.87
2018-11-06T05:17:32.604Z,3.47
2018-11-06T05:20:01.731Z,4.90
2018-11-06T05:22:32.164Z,3.27
2018-11-06T05:25:01.510Z,3.93
2018-11-06T05:27:37.851Z,3.10
2018-11-06T05:30:08.301Z,3.03
2018-11-06T05:32:38.288Z,4.53
2018-11-06T05:35:07.949Z,2.53
2018-11-06T05:37:44.819Z,3.33
2018-11-06T05:40:24.701Z,3.73
2018-11-06T05:42:53.816Z,5.10
2018-11-06T05:45:22.925Z,7.40
2018-11-06T05:47:52.032Z,5.23
2018-11-06T05:50:21.373Z,4.50
2018-11-06T05:52:50.456Z,5.10
2018-11-06T05:55:19.544Z,6.23
2018-11-06T05:57:57.174Z,5.00
2018-11-06T06:00:26.345Z,5.23
2018-11-06T06:02:57.756Z,5.10
2018-11-06T06:05:27.216Z,4.60
2018-11-06T06:08:00.397Z,3.70
2018-11-06T06:10:29.499Z,5.00
2018-11-06T06:13:03.286Z,4.33
2018-11-06T06:15:32.820Z,5.67
2018-11-06T06:18:09.618Z,4.93
2018-11-06T06:20:38.766Z,4.03
2018-11-06T06:23:08.840Z,4.07
2018-11-06T06:25:38.049Z,7.13
2018-11-06T06:28:11.772Z,4.67
2018-11-06T06:30:41.349Z,4.77
2018-11-06T06:33:18.431Z,6.97
2018-11-06T06:35:47.849Z,7.17
2018-11-06T06:38:17.961Z,5.00
2018-11-06T06:40:47.108Z,4.63
2018-11-06T06:43:24.061Z,5.53
2018-11-06T06:45:53.248Z,4.93
2018-11-06T06:48:23.958Z,4.37
2018-11-06T06:50:53.419Z,4.63
2018-11-06T06:53:30.444Z,4.73
2018-11-06T06:55:59.607Z,4.70
2018-11-06T06:58:30.511Z,4.03
2018-11-06T07:00:59.685Z,5.43
2018-11-06T07:03:36.700Z,5.00
2018-11-06T07:06:06.312Z,5.07
2018-11-06T07:08:35.961Z,5.17
2018-11-06T07:11:06.699Z,6.40
2018-11-06T07:13:40.103Z,5.97
2018-11-06T07:16:09.314Z,5.47
2018-11-06T07:18:46.182Z,5.13
2018-11-06T07:21:15.288Z,6.23
2018-11-06T07:23:48.077Z,6.13
2018-11-06T07:26:17.817Z,7.17
2018-11-06T07:28:48.872Z,7.30
2018-11-06T07:31:18.399Z,7.53
2018-11-06T07:33:54.892Z,5.97
2018-11-06T07:36:24.963Z,6.90
2018-11-06T07:38:54.865Z,4.00
2018-11-06T07:41:25.017Z,4.17
2018-11-06T07:43:58.024Z,3.90
2018-11-06T07:46:28.469Z,9.67
2018-11-06T07:49:04.833Z,15.23
2018-11-06T07:51:34.959Z,16.93
2018-11-06T07:54:04.380Z,13.43
2018-11-06T07:56:33.534Z,9.57
2018-11-06T07:59:10.011Z,8.67
2018-11-06T08:01:39.381Z,8.37
2018-11-06T08:04:14.111Z,5.67
2018-11-06T08:06:44.691Z,5.77
2018-11-06T08:09:13.917Z,7.03
2018-11-06T08:11:44.580Z,3.20
2018-11-06T08:14:16.850Z,2.73
2018-11-06T08:16:46.155Z,4.77
2018-11-06T08:19:22.905Z,3.60
2018-11-06T08:21:52.879Z,2.83
2018-11-06T08:24:23.203Z,3.40
2018-11-06T08:26:54.756Z,2.13
2018-11-06T08:29:33.631Z,2.10
2018-11-06T08:32:04.106Z,3.33
2018-11-06T08:34:33.560Z,2.20
2018-11-06T08:37:07.105Z,2.33
2018-11-06T08:39:37.073Z,3.53
2018-11-06T08:42:07.484Z,4.87
2018-11-06T08:44:37.557Z,2.17
2018-11-06T08:47:07.383Z,5.13
2018-11-06T08:49:40.237Z,5.30
2018-11-06T08:52:12.272Z,5.17
2018-11-06T08:54:43.271Z,4.60
2018-11-06T08:57:12.451Z,4.90
2018-11-06T08:59:44.587Z,8.00
2018-11-06T09:02:13.911Z,4.10
2018-11-06T09:04:51.029Z,5.67
2018-11-06T09:07:20.155Z,5.57
2018-11-06T09:09:51.044Z,7.40
2018-11-06T09:15:41.632Z,5.63
2018-11-06T09:18:12.402Z,4.40
2018-11-06T09:20:41.606Z,10.17
2018-11-06T09:23:11.357Z,6.37
2018-11-06T09:25:40.680Z,7.07
2018-11-06T09:28:10.318Z,4.93
2018-11-06T09:30:41.036Z,5.60
2018-11-06T09:33:13.221Z,8.87
2018-11-06T09:35:43.477Z,4.53
2018-11-06T09:38:13.291Z,5.20
2018-11-06T09:40:42.967Z,8.43
2018-11-06T09:43:12.677Z,4.83
2018-11-06T09:49:03.637Z,4.37
2018-11-06T09:51:32.874Z,6.43
2018-11-06T09:54:02.521Z,4.73
2018-11-06T09:56:32.745Z,4.40
2018-11-06T09:59:02.298Z,4.20
2018-11-06T10:01:31.653Z,4.10
2018-11-06T10:04:02.290Z,4.27
2018-11-06T10:06:31.751Z,2.57
2018-11-06T10:09:02.180Z,2.40
2018-11-06T10:11:32.084Z,3.73
2018-11-06T10:14:01.926Z,4.67
2018-11-06T10:16:32.486Z,2.63
2018-11-06T10:19:02.098Z,3.50
2018-11-06T10:21:38.722Z,3.30
2018-11-06T10:24:08.812Z,5.50
2018-11-06T10:26:37.990Z,3.07
2018-11-06T10:29:08.708Z,4.33
2018-11-06T10:31:41.643Z,4.73
2018-11-06T10:34:11.545Z,5.20
2018-11-06T10:36:44.113Z,3.37
2018-11-06T10:39:15.264Z,8.23
2018-11-06T10:41:48.481Z,4.37
2018-11-06T10:44:19.196Z,5.63
2018-11-06T10:46:49.667Z,5.37
2018-11-06T10:49:18.866Z,7.70
2018-11-06T10:51:56.314Z,4.67
2018-11-06T10:54:27.289Z,6.30
2018-11-06T10:56:56.569Z,5.03
2018-11-06T10:59:26.359Z,6.23
2018-11-06T11:02:04.725Z,3.43
2018-11-06T11:04:34.083Z,6.60
2018-11-06T11:07:03.917Z,4.13
2018-11-06T11:09:34.156Z,5.03
2018-11-06T11:12:07.294Z,8.47
2018-11-06T11:14:36.591Z,4.27
2018-11-06T11:17:09.965Z,4.77
2018-11-06T11:19:39.598Z,4.50
2018-11-06T11:22:11.473Z,5.30
2018-11-06T11:24:40.874Z,4.90
2018-11-06T11:27:15.219Z,4.13
2018-11-06T11:29:44.472Z,4.43
2018-11-06T11:32:17.450Z,4.33
2018-11-06T11:34:48.021Z,5.73
2018-11-06T11:37:21.551Z,3.80
2018-11-06T11:39:51.127Z,6.80
2018-11-06T11:42:25.841Z,4.00
2018-11-06T11:44:55.406Z,4.60
2018-11-06T11:47:27.206Z,5.60
2018-11-06T11:49:57.013Z,5.97
2018-11-06T11:52:33.793Z,4.90
2018-11-06T11:56:32.578Z,4.27
2018-11-06T11:59:02.625Z,6.17
2018-11-06T12:01:33.236Z,5.53
2018-11-06T12:04:02.539Z,5.07
2018-11-06T12:06:43.597Z,9.57
2018-11-06T12:09:13.347Z,4.33
2018-11-06T12:11:42.836Z,5.63
2018-11-06T12:14:12.233Z,5.33
2018-11-06T12:16:43.058Z,9.87
2018-11-06T12:19:12.589Z,6.23
2018-11-06T12:21:42.142Z,5.60
2018-11-06T12:24:13.368Z,6.47
2018-11-06T12:26:44.789Z,7.27
2018-11-06T12:29:14.216Z,5.37
2018-11-06T12:31:47.256Z,5.20
2018-11-06T12:34:16.804Z,4.93
2018-11-06T12:36:49.568Z,7.40
2018-11-06T12:39:19.072Z,5.57
2018-11-06T12:44:55.776Z,5.80
2018-11-06T12:47:25.585Z,6.00
2018-11-06T12:50:01.409Z,5.77
2018-11-06T12:52:33.907Z,7.90
2018-11-06T12:55:03.324Z,6.80
2018-11-06T12:57:35.157Z,8.73
2018-11-06T13:00:04.582Z,5.70
2018-11-06T13:02:34.645Z,8.10
2018-11-06T13:05:07.248Z,6.20
2018-11-06T13:07:38.015Z,6.37
2018-11-06T13:10:11.505Z,6.93
2018-11-06T13:12:42.499Z,8.33
2018-11-06T13:15:15.641Z,7.37
2018-11-06T13:17:45.318Z,7.90
2018-11-06T13:20:17.132Z,9.90
2018-11-06T13:22:48.773Z,6.90
2018-11-06T13:25:19.776Z,8.77
2018-11-06T13:27:50.714Z,7.87
2018-11-06T13:30:21.367Z,7.03
2018-11-06T13:32:54.297Z,9.27
2018-11-06T13:35:34.263Z,8.73
2018-11-06T13:38:04.112Z,8.47
2018-11-06T13:40:33.970Z,7.77
2018-11-06T13:43:03.418Z,8.10
2018-11-06T13:45:32.608Z,8.87
2018-11-06T13:48:02.797Z,8.00
2018-11-06T13:50:37.625Z,7.07
2018-11-06T13:53:07.376Z,9.77
2018-11-06T13:55:38.902Z,9.00
2018-11-06T13:58:08.598Z,9.70
2018-11-06T14:00:42.468Z,8.93
2018-11-06T14:03:14.167Z,7.60
2018-11-06T14:05:46.521Z,7.53
2018-11-06T14:14:13.738Z,7.77
2018-11-06T14:16:49.051Z,8.37
2018-11-06T14:19:19.282Z,8.27
2018-11-06T14:21:54.398Z,7.53
2018-11-06T14:24:24.414Z,7.47
2018-11-06T14:26:55.916Z,7.20
2018-11-06T14:29:25.733Z,7.53
2018-11-06T14:32:00.153Z,6.50
2018-11-06T14:34:30.349Z,7.10
2018-11-06T14:37:05.027Z,7.40
2018-11-06T14:39:34.228Z,6.50
2018-11-06T14:42:07.186Z,7.63
2018-11-06T14:44:41.937Z,8.20
2018-11-06T14:47:12.162Z,10.23
2018-11-06T14:49:42.151Z,11.00
2018-11-06T14:52:13.112Z,10.37
2018-11-06T14:54:43.113Z,10.77
2018-11-06T14:57:16.582Z,8.67
2018-11-06T15:00:00.276Z,10.73
2018-11-06T15:02:34.171Z,12.77
2018-11-06T15:05:18.480Z,8.13
2018-11-06T15:07:52.384Z,9.73
2018-11-06T15:10:21.778Z,9.97
2018-11-06T15:12:52.632Z,10.47
2018-11-06T15:15:22.854Z,9.87
2018-11-06T15:17:55.221Z,13.37
2018-11-06T15:31:36.638Z,14.43
2018-11-06T15:34:06.607Z,9.00
2018-11-06T15:36:36.781Z,9.67
2018-11-06T15:39:09.529Z,9.30
2018-11-06T15:41:40.507Z,11.37
2018-11-06T15:44:12.938Z,11.60
2018-11-06T15:49:57.976Z,14.90
2018-11-06T15:52:29.566Z,14.67
2018-11-06T15:55:14.678Z,15.43
2018-11-06T15:57:45.201Z,12.37
2018-11-06T16:00:17.412Z,11.37
2018-11-06T16:02:47.481Z,12.20
2018-11-06T16:05:20.148Z,13.10
2018-11-06T16:07:50.508Z,11.27
2018-11-06T16:10:21.308Z,11.80
2018-11-06T16:12:52.675Z,10.67
2018-11-06T16:15:22.915Z,9.50
2018-11-06T16:17:56.269Z,10.97
2018-11-06T16:20:29.115Z,9.33
2018-11-06T16:22:59.252Z,13.80
2018-11-06T16:25:29.544Z,11.30
2018-11-06T16:28:02.052Z,8.43
2018-11-06T16:30:33.678Z,10.00
2018-11-06T16:33:05.879Z,13.80
2018-11-06T16:35:36.069Z,10.17
2018-11-06T16:38:09.906Z,12.00
2018-11-06T16:40:41.193Z,12.50
2018-11-06T16:43:11.937Z,18.20
2018-11-06T16:45:46.531Z,11.40
2018-11-06T16:48:19.199Z,9.40
2018-11-06T16:50:49.625Z,12.07
2018-11-06T16:53:24.249Z,7.93
2018-11-06T16:55:57.218Z,8.57
2018-11-06T16:58:28.660Z,5.90
2018-11-06T17:00:59.094Z,7.70
2018-11-06T17:03:30.889Z,10.10
2018-11-06T17:06:01.443Z,7.23
2018-11-06T17:08:31.954Z,7.43
2018-11-06T17:11:01.819Z,12.93
2018-11-06T17:13:33.710Z,7.57
2018-11-06T17:16:04.316Z,8.27
2018-11-06T17:18:35.261Z,7.83
2018-11-06T17:21:06.557Z,5.60
2018-11-06T17:23:38.541Z,6.43
2018-11-06T17:26:10.050Z,5.97
2018-11-06T17:28:40.376Z,7.30
2018-11-06T17:31:10.217Z,5.23
2018-11-06T17:33:42.324Z,5.57
2018-11-06T17:36:12.206Z,4.63
2018-11-06T17:38:42.697Z,4.27
2018-11-06T17:41:13.837Z,5.17
2018-11-06T17:46:21.560Z,4.00
2018-11-06T17:48:53.076Z,4.73
2018-11-06T17:51:22.916Z,5.63
2018-11-06T17:53:53.010Z,5.43
2018-11-06T17:58:57.104Z,6.23
2018-11-06T18:01:26.336Z,3.43
2018-11-06T18:03:58.278Z,3.87
2018-11-06T18:06:27.835Z,6.20
2018-11-06T18:08:58.121Z,6.77
2018-11-06T18:11:28.221Z,3.83
2018-11-06T18:13:57.848Z,5.50
2018-11-06T18:16:27.146Z,5.87
2018-11-06T18:18:59.647Z,5.10
2018-11-06T18:21:28.943Z,6.70
2018-11-06T18:24:05.388Z,4.53
2018-11-06T18:26:36.741Z,3.27
2018-11-06T18:29:07.243Z,3.53
2018-11-06T18:31:38.423Z,3.73
2018-11-06T18:34:08.458Z,3.80
2018-11-06T18:36:38.928Z,4.60
2018-11-06T18:39:12.612Z,7.30
2018-11-06T18:41:42.921Z,4.07
2018-11-06T18:44:15.508Z,4.33
2018-11-06T18:46:45.675Z,6.30
2018-11-06T18:52:36.885Z,4.10
2018-11-06T18:55:07.487Z,4.13
2018-11-06T18:57:37.120Z,3.63
2018-11-06T19:00:09.290Z,2.90
2018-11-06T19:03:26.078Z,4.40
2018-11-06T19:05:55.424Z,4.07
2018-11-06T19:08:25.086Z,3.70
2018-11-06T19:10:55.165Z,7.50
2018-11-06T19:13:28.287Z,3.37
2018-11-06T19:16:00.040Z,3.27
2018-11-06T19:18:31.221Z,2.93
2018-11-06T19:21:01.357Z,3.30
2018-11-06T19:23:31.175Z,3.17
2018-11-06T19:26:01.058Z,2.83
2018-11-06T19:28:33.967Z,2.80
2018-11-06T19:31:05.068Z,2.80
2018-11-06T19:33:37.108Z,3.07
2018-11-06T19:36:07.174Z,4.30
2018-11-06T19:38:39.501Z,5.80
2018-11-06T19:43:44.455Z,4.23
2018-11-06T19:46:16.376Z,3.80
2018-11-06T19:48:49.128Z,3.23
2018-11-06T19:51:19.271Z,4.80
2018-11-06T19:53:54.885Z,3.63
2018-11-06T19:56:25.472Z,3.23
2018-11-06T19:58:54.776Z,3.33
2018-11-06T20:01:24.230Z,4.63
2018-11-06T20:03:53.901Z,2.90
2018-11-06T20:06:23.855Z,3.80
2018-11-06T20:08:55.836Z,4.27
2018-11-06T20:11:25.322Z,4.23
2018-11-06T20:13:59.202Z,6.97
2018-11-06T20:16:33.780Z,4.47
2018-11-06T20:19:04.996Z,5.43
2018-11-06T20:21:36.628Z,3.57
2018-11-06T20:24:06.559Z,4.27
2018-11-06T20:26:35.704Z,3.43
2018-11-06T20:29:09.486Z,3.50
2018-11-06T20:32:06.700Z,3.50
2018-11-06T20:34:39.192Z,3.27
2018-11-06T20:37:14.385Z,3.80
2018-11-06T20:39:43.772Z,3.70
2018-11-06T20:42:15.619Z,2.83
2018-11-06T20:44:48.025Z,3.53
2018-11-06T20:47:19.344Z,3.90
2018-11-06T20:49:48.819Z,3.53
2018-11-06T20:52:20.961Z,4.13
2018-11-06T20:54:53.486Z,6.17
2018-11-06T20:57:22.928Z,2.80
2018-11-06T20:59:53.183Z,3.00
2018-11-06T21:02:27.036Z,4.00
2018-11-06T21:04:58.438Z,2.93
2018-11-06T21:07:28.359Z,6.27
2018-11-06T21:09:59.568Z,3.33
2018-11-06T21:12:29.541Z,3.97
2018-11-06T21:15:00.002Z,4.17
2018-11-06T21:17:33.296Z,2.27
2018-11-06T21:20:04.147Z,3.73
2018-11-06T21:22:34.125Z,2.17
2018-11-06T21:25:04.472Z,1.70
2018-11-06T21:27:35.889Z,2.60
2018-11-06T21:30:06.425Z,2.07
2018-11-06T21:32:41.511Z,3.03
2018-11-06T21:35:12.074Z,2.20
2018-11-06T21:37:43.040Z,2.50
2018-11-06T21:40:17.471Z,2.57
2018-11-06T21:42:47.725Z,2.70
2018-11-06T21:45:17.520Z,3.33
2018-11-06T21:47:48.680Z,2.37
2018-11-06T21:50:18.450Z,2.00
2018-11-06T21:52:51.571Z,1.53
2018-11-06T21:55:21.271Z,1.73
2018-11-06T21:57:50.980Z,1.37
2018-11-06T22:00:21.162Z,4.03
2018-11-06T22:03:00.100Z,2.03
2018-11-06T22:05:29.479Z,2.17
2018-11-06T22:07:59.186Z,1.43
2018-11-06T22:10:34.275Z,1.77
2018-11-06T22:13:03.658Z,1.37
2018-11-06T22:15:33.852Z,2.00
2018-11-06T22:18:04.983Z,1.33
2018-11-06T22:20:34.920Z,1.83
2018-11-06T22:23:08.023Z,2.20
2018-11-06T22:25:40.704Z,1.67
2018-11-06T22:28:11.315Z,1.20
2018-11-06T22:30:40.373Z,1.63
2018-11-06T22:33:14.764Z,2.93
2018-11-06T22:35:46.425Z,1.20
2018-11-06T22:38:15.851Z,1.10
2018-11-06T22:40:45.905Z,1.37
2018-11-06T22:43:19.892Z,1.53
2018-11-06T22:45:49.383Z,2.80
2018-11-06T22:48:19.585Z,3.20
2018-11-06T22:50:49.021Z,1.57
2018-11-06T22:53:23.939Z,1.20
2018-11-06T22:55:54.002Z,1.13
2018-11-06T22:58:24.420Z,1.63
2018-11-06T23:03:27.491Z,1.70
2018-11-06T23:05:56.991Z,1.20
2018-11-06T23:08:30.687Z,1.30
2018-11-06T23:11:00.595Z,1.20
2018-11-06T23:13:32.373Z,1.40
2018-11-06T23:16:01.957Z,1.10
2018-11-06T23:18:34.966Z,1.10
2018-11-06T23:21:04.983Z,2.03
2018-11-06T23:23:36.697Z,1.33
2018-11-06T23:26:05.923Z,2.50
2018-11-06T23:31:15.348Z,1.67
2018-11-06T23:33:46.116Z,2.30
2018-11-06T23:36:17.445Z,1.33
2018-11-06T23:38:46.874Z,1.97
2018-11-06T23:41:16.246Z,2.00
2018-11-06T23:43:45.858Z,1.63
2018-11-06T23:46:16.889Z,1.50
2018-11-06T23:48:51.104Z,1.70
2018-11-06T23:51:21.909Z,2.13
2018-11-06T23:53:51.424Z,1.87
2018-11-06T23:56:20.865Z,1.40
2018-11-06T23:58:58.075Z,2.30
